sensor_id;sensor_type;location;lat;lon;timestamp;pressure;altitude;pressure_sealevel;temperature;humidity
24154;BME280;12312;53.362;-1.518;2023-01-31T00:01:24;99892.31;;;5.44;100.00
24154;BME280;12312;53.362;-1.518;2023-01-31T00:03:58;99881.06;;;5.39;100.00
24154;BME280;12312;53.362;-1.518;2023-01-31T00:06:29;99869.88;;;5.34;100.00
24154;BME280;12312;53.362;-1.518;2023-01-31T00:08:56;99854.88;;;5.35;100.00
24154;BME280;12312;53.362;-1.518;2023-01-31T00:11:23;99867.47;;;5.28;100.00
24154;BME280;12312;53.362;-1.518;2023-01-31T00:13:50;99857.44;;;5.36;100.00
24154;BME280;12312;53.362;-1.518;2023-01-31T00:16:17;99846.88;;;5.36;99.74
24154;BME280;12312;53.362;-1.518;2023-01-31T00:18:44;99836.59;;;5.30;100.00
24154;BME280;12312;53.362;-1.518;2023-01-31T00:21:21;99835.81;;;5.28;100.00
24154;BME280;12312;53.362;-1.518;2023-01-31T00:23:48;99816.53;;;5.26;99.55
24154;BME280;12312;53.362;-1.518;2023-01-31T00:28:48;99801.91;;;5.19;99.40
24154;BME280;12312;53.362;-1.518;2023-01-31T00:31:15;99777.53;;;5.13;99.90
24154;BME280;12312;53.362;-1.518;2023-01-31T00:33:43;99781.16;;;5.10;99.96
24154;BME280;12312;53.362;-1.518;2023-01-31T00:36:14;99789.13;;;5.09;100.00
24154;BME280;12312;53.362;-1.518;2023-01-31T00:38:40;99788.28;;;5.08;100.00
24154;BME280;12312;53.362;-1.518;2023-01-31T00:41:10;99790.66;;;5.14;100.00
24154;BME280;12312;53.362;-1.518;2023-01-31T00:43:36;99775.16;;;5.07;100.00
24154;BME280;12312;53.362;-1.518;2023-01-31T00:46:05;99773.13;;;5.13;100.00
24154;BME280;12312;53.362;-1.518;2023-01-31T00:48:32;99773.91;;;5.15;100.00
24154;BME280;12312;53.362;-1.518;2023-01-31T00:51:00;99762.94;;;5.04;100.00
24154;BME280;12312;53.362;-1.518;2023-01-31T00:53:26;99748.03;;;5.03;100.00
24154;BME280;12312;53.362;-1.518;2023-01-31T00:55:53;99748.66;;;5.10;100.00
24154;BME280;12312;53.362;-1.518;2023-01-31T00:58:21;99744.22;;;5.10;100.00
24154;BME280;12312;53.362;-1.518;2023-01-31T01:00:47;99747.91;;;5.06;100.00
24154;BME280;12312;53.362;-1.518;2023-01-31T01:03:13;99749.81;;;5.03;100.00
24154;BME280;12312;53.362;-1.518;2023-01-31T01:05:42;99747.44;;;4.97;100.00
24154;BME280;12312;53.362;-1.518;2023-01-31T01:08:07;99740.81;;;5.08;100.00
24154;BME280;12312;53.362;-1.518;2023-01-31T01:10:33;99736.44;;;5.07;100.00
24154;BME280;12312;53.362;-1.518;2023-01-31T01:12:58;99729.97;;;4.94;100.00
24154;BME280;12312;53.362;-1.518;2023-01-31T01:15:24;99725.81;;;5.09;100.00
24154;BME280;12312;53.362;-1.518;2023-01-31T01:17:49;99702.00;;;5.10;100.00
24154;BME280;12312;53.362;-1.518;2023-01-31T01:20:16;99709.81;;;5.13;100.00
24154;BME280;12312;53.362;-1.518;2023-01-31T01:22:41;99696.50;;;5.16;100.00
24154;BME280;12312;53.362;-1.518;2023-01-31T01:25:08;99706.38;;;5.11;100.00
24154;BME280;12312;53.362;-1.518;2023-01-31T01:27:33;99699.78;;;5.21;100.00
24154;BME280;12312;53.362;-1.518;2023-01-31T01:29:59;99701.38;;;5.25;100.00
24154;BME280;12312;53.362;-1.518;2023-01-31T01:32:26;99699.50;;;5.27;100.00
24154;BME280;12312;53.362;-1.518;2023-01-31T01:34:55;99690.44;;;5.34;100.00
24154;BME280;12312;53.362;-1.518;2023-01-31T01:37:20;99688.56;;;5.36;100.00
24154;BME280;12312;53.362;-1.518;2023-01-31T01:39:47;99688.22;;;5.44;100.00
24154;BME280;12312;53.362;-1.518;2023-01-31T01:42:20;99695.03;;;5.49;100.00
24154;BME280;12312;53.362;-1.518;2023-01-31T01:50:05;99685.03;;;5.56;100.00
24154;BME280;12312;53.362;-1.518;2023-01-31T01:52:34;99687.38;;;5.62;100.00
24154;BME280;12312;53.362;-1.518;2023-01-31T01:55:13;99691.19;;;5.57;100.00
24154;BME280;12312;53.362;-1.518;2023-01-31T01:57:44;99680.34;;;5.63;100.00
24154;BME280;12312;53.362;-1.518;2023-01-31T02:00:30;99673.22;;;5.65;100.00
24154;BME280;12312;53.362;-1.518;2023-01-31T02:02:58;99676.66;;;5.67;100.00
24154;BME280;12312;53.362;-1.518;2023-01-31T02:05:31;99690.75;;;5.66;100.00
24154;BME280;12312;53.362;-1.518;2023-01-31T02:07:58;99682.38;;;5.56;100.00
24154;BME280;12312;53.362;-1.518;2023-01-31T02:13:30;99650.50;;;5.61;100.00
24154;BME280;12312;53.362;-1.518;2023-01-31T02:15:56;99661.34;;;5.54;100.00
24154;BME280;12312;53.362;-1.518;2023-01-31T02:18:23;99665.50;;;5.60;100.00
24154;BME280;12312;53.362;-1.518;2023-01-31T02:26:54;99659.63;;;5.53;100.00
24154;BME280;12312;53.362;-1.518;2023-01-31T02:29:40;99663.34;;;5.49;100.00
24154;BME280;12312;53.362;-1.518;2023-01-31T02:32:44;99659.50;;;5.57;100.00
24154;BME280;12312;53.362;-1.518;2023-01-31T02:40:28;99647.53;;;5.68;100.00
24154;BME280;12312;53.362;-1.518;2023-01-31T02:51:35;99606.31;;;5.84;100.00
24154;BME280;12312;53.362;-1.518;2023-01-31T02:54:12;99607.66;;;5.93;100.00
24154;BME280;12312;53.362;-1.518;2023-01-31T02:56:41;99606.59;;;5.97;100.00
24154;BME280;12312;53.362;-1.518;2023-01-31T02:59:17;99615.56;;;5.93;100.00
24154;BME280;12312;53.362;-1.518;2023-01-31T03:01:48;99606.22;;;6.04;100.00
24154;BME280;12312;53.362;-1.518;2023-01-31T03:04:18;99598.16;;;6.07;100.00
24154;BME280;12312;53.362;-1.518;2023-01-31T03:09:36;99598.41;;;5.84;100.00
24154;BME280;12312;53.362;-1.518;2023-01-31T03:17:50;99584.31;;;5.65;100.00
24154;BME280;12312;53.362;-1.518;2023-01-31T03:20:40;99582.88;;;5.77;100.00
24154;BME280;12312;53.362;-1.518;2023-01-31T03:23:17;99609.22;;;5.78;100.00
24154;BME280;12312;53.362;-1.518;2023-01-31T03:25:45;99595.28;;;5.75;100.00
24154;BME280;12312;53.362;-1.518;2023-01-31T03:28:16;99587.75;;;5.86;100.00
24154;BME280;12312;53.362;-1.518;2023-01-31T03:30:46;99585.59;;;5.75;100.00
24154;BME280;12312;53.362;-1.518;2023-01-31T03:33:40;99566.63;;;5.86;100.00
24154;BME280;12312;53.362;-1.518;2023-01-31T03:39:17;99558.63;;;5.87;100.00
24154;BME280;12312;53.362;-1.518;2023-01-31T03:46:56;99553.13;;;5.92;100.00
24154;BME280;12312;53.362;-1.518;2023-01-31T03:49:25;99547.34;;;5.84;100.00
24154;BME280;12312;53.362;-1.518;2023-01-31T03:51:57;99569.13;;;5.89;100.00
24154;BME280;12312;53.362;-1.518;2023-01-31T03:54:30;99553.78;;;5.97;100.00
24154;BME280;12312;53.362;-1.518;2023-01-31T03:57:12;99557.97;;;6.01;100.00
24154;BME280;12312;53.362;-1.518;2023-01-31T03:59:42;99554.22;;;6.05;100.00
24154;BME280;12312;53.362;-1.518;2023-01-31T04:02:12;99562.72;;;6.11;100.00
24154;BME280;12312;53.362;-1.518;2023-01-31T04:04:47;99547.44;;;6.18;100.00
24154;BME280;12312;53.362;-1.518;2023-01-31T04:07:15;99544.88;;;6.16;100.00
24154;BME280;12312;53.362;-1.518;2023-01-31T04:09:42;99554.13;;;6.25;100.00
24154;BME280;12312;53.362;-1.518;2023-01-31T04:12:11;99543.53;;;6.25;100.00
24154;BME280;12312;53.362;-1.518;2023-01-31T04:14:36;99557.00;;;6.20;100.00
24154;BME280;12312;53.362;-1.518;2023-01-31T04:17:02;99564.00;;;6.21;100.00
24154;BME280;12312;53.362;-1.518;2023-01-31T04:19:27;99573.63;;;6.22;100.00
24154;BME280;12312;53.362;-1.518;2023-01-31T04:21:53;99560.19;;;6.27;100.00
24154;BME280;12312;53.362;-1.518;2023-01-31T04:24:18;99573.56;;;6.24;100.00
24154;BME280;12312;53.362;-1.518;2023-01-31T04:26:44;99552.72;;;6.18;100.00
24154;BME280;12312;53.362;-1.518;2023-01-31T04:29:09;99565.84;;;6.19;100.00
24154;BME280;12312;53.362;-1.518;2023-01-31T04:31:34;99572.28;;;6.14;100.00
24154;BME280;12312;53.362;-1.518;2023-01-31T04:34:00;99574.47;;;6.06;100.00
24154;BME280;12312;53.362;-1.518;2023-01-31T04:36:26;99568.53;;;6.01;100.00
24154;BME280;12312;53.362;-1.518;2023-01-31T04:38:51;99568.88;;;6.12;100.00
24154;BME280;12312;53.362;-1.518;2023-01-31T04:41:17;99563.91;;;6.06;100.00
24154;BME280;12312;53.362;-1.518;2023-01-31T04:43:42;99569.31;;;6.03;100.00
24154;BME280;12312;53.362;-1.518;2023-01-31T04:46:08;99561.09;;;6.09;100.00
24154;BME280;12312;53.362;-1.518;2023-01-31T04:48:33;99553.50;;;6.20;100.00
24154;BME280;12312;53.362;-1.518;2023-01-31T04:50:59;99546.34;;;6.22;100.00
24154;BME280;12312;53.362;-1.518;2023-01-31T04:53:24;99552.00;;;6.14;100.00
24154;BME280;12312;53.362;-1.518;2023-01-31T04:55:53;99558.78;;;6.20;100.00
24154;BME280;12312;53.362;-1.518;2023-01-31T04:58:19;99545.88;;;6.31;100.00
24154;BME280;12312;53.362;-1.518;2023-01-31T05:00:44;99540.59;;;6.31;100.00
24154;BME280;12312;53.362;-1.518;2023-01-31T05:03:10;99543.31;;;6.29;100.00
24154;BME280;12312;53.362;-1.518;2023-01-31T05:05:36;99528.31;;;6.30;100.00
24154;BME280;12312;53.362;-1.518;2023-01-31T05:08:01;99517.97;;;6.25;100.00
24154;BME280;12312;53.362;-1.518;2023-01-31T05:10:26;99527.53;;;6.28;100.00
24154;BME280;12312;53.362;-1.518;2023-01-31T05:12:52;99513.56;;;6.26;100.00
24154;BME280;12312;53.362;-1.518;2023-01-31T05:15:17;99501.25;;;6.25;100.00
24154;BME280;12312;53.362;-1.518;2023-01-31T05:17:43;99510.59;;;6.15;100.00
24154;BME280;12312;53.362;-1.518;2023-01-31T05:20:09;99515.41;;;6.24;100.00
24154;BME280;12312;53.362;-1.518;2023-01-31T05:22:35;99505.00;;;6.21;100.00
24154;BME280;12312;53.362;-1.518;2023-01-31T05:25:00;99506.31;;;6.29;100.00
24154;BME280;12312;53.362;-1.518;2023-01-31T05:27:26;99499.03;;;6.34;100.00
24154;BME280;12312;53.362;-1.518;2023-01-31T05:29:51;99495.66;;;6.31;100.00
24154;BME280;12312;53.362;-1.518;2023-01-31T05:32:17;99505.25;;;6.33;100.00
24154;BME280;12312;53.362;-1.518;2023-01-31T05:34:43;99497.25;;;6.35;100.00
24154;BME280;12312;53.362;-1.518;2023-01-31T05:37:09;99511.22;;;6.37;100.00
24154;BME280;12312;53.362;-1.518;2023-01-31T05:39:34;99504.78;;;6.42;100.00
24154;BME280;12312;53.362;-1.518;2023-01-31T05:42:00;99502.97;;;6.43;100.00
24154;BME280;12312;53.362;-1.518;2023-01-31T05:44:26;99491.41;;;6.45;100.00
24154;BME280;12312;53.362;-1.518;2023-01-31T05:46:51;99474.13;;;6.55;100.00
24154;BME280;12312;53.362;-1.518;2023-01-31T05:49:17;99471.22;;;6.60;100.00
24154;BME280;12312;53.362;-1.518;2023-01-31T05:51:42;99457.22;;;6.58;100.00
24154;BME280;12312;53.362;-1.518;2023-01-31T05:54:10;99460.50;;;6.63;100.00
24154;BME280;12312;53.362;-1.518;2023-01-31T05:56:35;99448.69;;;6.70;100.00
24154;BME280;12312;53.362;-1.518;2023-01-31T05:59:01;99439.19;;;6.66;100.00
24154;BME280;12312;53.362;-1.518;2023-01-31T06:01:28;99438.47;;;6.62;100.00
24154;BME280;12312;53.362;-1.518;2023-01-31T06:03:54;99438.03;;;6.71;100.00
24154;BME280;12312;53.362;-1.518;2023-01-31T06:06:19;99429.22;;;6.71;100.00
24154;BME280;12312;53.362;-1.518;2023-01-31T06:08:45;99435.53;;;6.68;100.00
24154;BME280;12312;53.362;-1.518;2023-01-31T06:11:12;99431.88;;;6.71;100.00
24154;BME280;12312;53.362;-1.518;2023-01-31T06:13:39;99428.34;;;6.70;100.00
24154;BME280;12312;53.362;-1.518;2023-01-31T06:16:07;99424.25;;;6.65;100.00
24154;BME280;12312;53.362;-1.518;2023-01-31T06:18:33;99421.63;;;6.65;100.00
24154;BME280;12312;53.362;-1.518;2023-01-31T06:20:59;99427.91;;;6.62;100.00
24154;BME280;12312;53.362;-1.518;2023-01-31T06:23:25;99431.34;;;6.64;100.00
24154;BME280;12312;53.362;-1.518;2023-01-31T06:25:52;99414.13;;;6.73;100.00
24154;BME280;12312;53.362;-1.518;2023-01-31T06:28:18;99414.31;;;6.70;100.00
24154;BME280;12312;53.362;-1.518;2023-01-31T06:30:44;99400.91;;;6.73;100.00
24154;BME280;12312;53.362;-1.518;2023-01-31T06:33:10;99406.72;;;6.79;100.00
24154;BME280;12312;53.362;-1.518;2023-01-31T06:35:36;99409.44;;;6.78;100.00
24154;BME280;12312;53.362;-1.518;2023-01-31T06:38:01;99410.13;;;6.81;100.00
24154;BME280;12312;53.362;-1.518;2023-01-31T06:40:27;99415.09;;;6.87;100.00
24154;BME280;12312;53.362;-1.518;2023-01-31T06:42:52;99410.22;;;6.80;100.00
24154;BME280;12312;53.362;-1.518;2023-01-31T06:45:18;99397.78;;;6.82;100.00
24154;BME280;12312;53.362;-1.518;2023-01-31T06:47:44;99404.75;;;6.83;100.00
24154;BME280;12312;53.362;-1.518;2023-01-31T06:50:11;99393.22;;;6.84;100.00
24154;BME280;12312;53.362;-1.518;2023-01-31T06:52:37;99407.22;;;6.86;100.00
24154;BME280;12312;53.362;-1.518;2023-01-31T06:55:03;99402.38;;;6.78;100.00
24154;BME280;12312;53.362;-1.518;2023-01-31T06:57:29;99399.13;;;6.89;100.00
24154;BME280;12312;53.362;-1.518;2023-01-31T06:59:54;99395.72;;;6.87;100.00
24154;BME280;12312;53.362;-1.518;2023-01-31T07:02:20;99406.19;;;6.88;100.00
24154;BME280;12312;53.362;-1.518;2023-01-31T07:04:45;99380.63;;;6.89;100.00
24154;BME280;12312;53.362;-1.518;2023-01-31T07:07:11;99389.50;;;6.88;100.00
24154;BME280;12312;53.362;-1.518;2023-01-31T07:09:36;99385.91;;;6.89;100.00
24154;BME280;12312;53.362;-1.518;2023-01-31T07:12:02;99402.38;;;6.94;100.00
24154;BME280;12312;53.362;-1.518;2023-01-31T07:14:28;99407.69;;;6.94;100.00
24154;BME280;12312;53.362;-1.518;2023-01-31T07:16:53;99395.97;;;6.98;100.00
24154;BME280;12312;53.362;-1.518;2023-01-31T07:19:19;99397.28;;;6.91;100.00
24154;BME280;12312;53.362;-1.518;2023-01-31T07:21:44;99391.13;;;6.90;100.00
24154;BME280;12312;53.362;-1.518;2023-01-31T07:24:14;99384.63;;;6.96;100.00
24154;BME280;12312;53.362;-1.518;2023-01-31T07:26:39;99396.16;;;6.95;100.00
24154;BME280;12312;53.362;-1.518;2023-01-31T07:29:05;99402.06;;;7.00;100.00
24154;BME280;12312;53.362;-1.518;2023-01-31T07:31:30;99388.47;;;7.06;100.00
24154;BME280;12312;53.362;-1.518;2023-01-31T07:33:56;99369.34;;;7.01;100.00
24154;BME280;12312;53.362;-1.518;2023-01-31T07:36:21;99384.53;;;7.13;100.00
24154;BME280;12312;53.362;-1.518;2023-01-31T07:38:53;99380.03;;;7.15;100.00
24154;BME280;12312;53.362;-1.518;2023-01-31T07:41:20;99382.06;;;7.10;100.00
24154;BME280;12312;53.362;-1.518;2023-01-31T07:43:45;99396.81;;;7.14;100.00
24154;BME280;12312;53.362;-1.518;2023-01-31T07:46:10;99380.94;;;7.14;100.00
24154;BME280;12312;53.362;-1.518;2023-01-31T07:48:37;99388.72;;;7.17;100.00
24154;BME280;12312;53.362;-1.518;2023-01-31T07:51:03;99382.16;;;7.24;100.00
24154;BME280;12312;53.362;-1.518;2023-01-31T07:53:30;99377.81;;;7.23;100.00
24154;BME280;12312;53.362;-1.518;2023-01-31T07:56:13;99395.56;;;7.21;100.00
24154;BME280;12312;53.362;-1.518;2023-01-31T07:58:40;99393.88;;;7.20;100.00
24154;BME280;12312;53.362;-1.518;2023-01-31T08:01:06;99410.41;;;7.08;100.00
24154;BME280;12312;53.362;-1.518;2023-01-31T08:03:51;99399.81;;;7.08;100.00
24154;BME280;12312;53.362;-1.518;2023-01-31T08:06:17;99389.75;;;6.99;100.00
24154;BME280;12312;53.362;-1.518;2023-01-31T08:08:43;99430.09;;;6.87;100.00
24154;BME280;12312;53.362;-1.518;2023-01-31T08:11:09;99420.00;;;6.78;100.00
24154;BME280;12312;53.362;-1.518;2023-01-31T08:13:35;99407.13;;;6.72;100.00
24154;BME280;12312;53.362;-1.518;2023-01-31T08:16:02;99417.41;;;6.61;100.00
24154;BME280;12312;53.362;-1.518;2023-01-31T08:18:28;99426.38;;;6.58;100.00
24154;BME280;12312;53.362;-1.518;2023-01-31T08:20:55;99425.00;;;6.67;100.00
24154;BME280;12312;53.362;-1.518;2023-01-31T08:23:21;99438.41;;;6.64;100.00
24154;BME280;12312;53.362;-1.518;2023-01-31T08:25:47;99408.16;;;6.69;100.00
24154;BME280;12312;53.362;-1.518;2023-01-31T08:28:12;99409.69;;;6.73;100.00
24154;BME280;12312;53.362;-1.518;2023-01-31T08:30:41;99430.00;;;6.73;100.00
24154;BME280;12312;53.362;-1.518;2023-01-31T08:33:09;99422.97;;;6.72;100.00
24154;BME280;12312;53.362;-1.518;2023-01-31T08:35:35;99424.72;;;6.73;100.00
24154;BME280;12312;53.362;-1.518;2023-01-31T08:38:00;99387.84;;;6.70;100.00
24154;BME280;12312;53.362;-1.518;2023-01-31T08:40:26;99412.41;;;6.72;100.00
24154;BME280;12312;53.362;-1.518;2023-01-31T08:42:58;99381.38;;;6.75;100.00
24154;BME280;12312;53.362;-1.518;2023-01-31T08:45:27;99395.63;;;6.73;100.00
24154;BME280;12312;53.362;-1.518;2023-01-31T08:47:58;99389.72;;;6.68;100.00
24154;BME280;12312;53.362;-1.518;2023-01-31T08:50:26;99374.47;;;6.73;100.00
24154;BME280;12312;53.362;-1.518;2023-01-31T08:52:56;99416.34;;;6.65;100.00
24154;BME280;12312;53.362;-1.518;2023-01-31T08:55:23;99379.16;;;6.68;100.00
24154;BME280;12312;53.362;-1.518;2023-01-31T08:57:49;99377.13;;;6.73;100.00
24154;BME280;12312;53.362;-1.518;2023-01-31T09:00:15;99393.28;;;6.67;100.00
24154;BME280;12312;53.362;-1.518;2023-01-31T09:02:41;99395.72;;;6.71;100.00
24154;BME280;12312;53.362;-1.518;2023-01-31T09:05:07;99393.16;;;6.70;100.00
24154;BME280;12312;53.362;-1.518;2023-01-31T09:07:35;99422.25;;;6.70;100.00
24154;BME280;12312;53.362;-1.518;2023-01-31T09:10:01;99405.59;;;6.68;100.00
24154;BME280;12312;53.362;-1.518;2023-01-31T09:12:27;99424.72;;;6.73;99.61
24154;BME280;12312;53.362;-1.518;2023-01-31T09:14:52;99421.28;;;6.71;99.46
24154;BME280;12312;53.362;-1.518;2023-01-31T09:17:18;99452.69;;;6.77;98.23
24154;BME280;12312;53.362;-1.518;2023-01-31T09:19:43;99412.16;;;6.76;98.22
24154;BME280;12312;53.362;-1.518;2023-01-31T09:22:09;99437.69;;;6.77;98.27
24154;BME280;12312;53.362;-1.518;2023-01-31T09:24:35;99444.75;;;6.77;99.00
24154;BME280;12312;53.362;-1.518;2023-01-31T09:27:00;99438.84;;;6.72;97.70
24154;BME280;12312;53.362;-1.518;2023-01-31T09:29:26;99432.19;;;6.65;98.45
24154;BME280;12312;53.362;-1.518;2023-01-31T09:31:53;99440.88;;;6.67;99.21
24154;BME280;12312;53.362;-1.518;2023-01-31T09:34:18;99436.38;;;6.69;98.71
24154;BME280;12312;53.362;-1.518;2023-01-31T09:36:44;99448.53;;;6.73;99.09
24154;BME280;12312;53.362;-1.518;2023-01-31T09:39:11;99437.00;;;6.74;99.12
24154;BME280;12312;53.362;-1.518;2023-01-31T09:41:49;99444.94;;;6.74;98.47
24154;BME280;12312;53.362;-1.518;2023-01-31T09:44:18;99431.53;;;6.77;96.94
24154;BME280;12312;53.362;-1.518;2023-01-31T09:46:54;99381.22;;;6.78;96.26
24154;BME280;12312;53.362;-1.518;2023-01-31T09:49:26;99459.19;;;6.87;93.18
24154;BME280;12312;53.362;-1.518;2023-01-31T09:51:58;99473.38;;;6.86;94.75
24154;BME280;12312;53.362;-1.518;2023-01-31T09:54:33;99460.38;;;6.81;94.36
24154;BME280;12312;53.362;-1.518;2023-01-31T09:59:43;99463.97;;;6.80;94.88
24154;BME280;12312;53.362;-1.518;2023-01-31T10:05:10;99462.94;;;6.83;93.64
24154;BME280;12312;53.362;-1.518;2023-01-31T10:07:47;99486.75;;;6.83;94.07
24154;BME280;12312;53.362;-1.518;2023-01-31T10:12:58;99476.25;;;6.81;94.75
24154;BME280;12312;53.362;-1.518;2023-01-31T10:15:34;99475.63;;;6.76;93.57
24154;BME280;12312;53.362;-1.518;2023-01-31T10:18:05;99461.91;;;6.70;92.30
24154;BME280;12312;53.362;-1.518;2023-01-31T10:20:39;99480.41;;;6.70;92.64
24154;BME280;12312;53.362;-1.518;2023-01-31T10:23:34;99474.50;;;6.65;94.05
24154;BME280;12312;53.362;-1.518;2023-01-31T10:26:13;99464.47;;;6.71;95.00
24154;BME280;12312;53.362;-1.518;2023-01-31T10:31:37;99500.78;;;6.68;95.08
24154;BME280;12312;53.362;-1.518;2023-01-31T10:34:22;99506.22;;;6.65;95.43
24154;BME280;12312;53.362;-1.518;2023-01-31T10:39:54;99481.69;;;6.29;99.33
24154;BME280;12312;53.362;-1.518;2023-01-31T10:42:33;99490.22;;;6.34;100.00
24154;BME280;12312;53.362;-1.518;2023-01-31T10:45:18;99516.19;;;6.43;99.95
24154;BME280;12312;53.362;-1.518;2023-01-31T10:47:52;99493.56;;;6.54;98.39
24154;BME280;12312;53.362;-1.518;2023-01-31T10:53:12;99521.84;;;6.69;96.33
24154;BME280;12312;53.362;-1.518;2023-01-31T10:58:23;99527.22;;;6.68;95.17
24154;BME280;12312;53.362;-1.518;2023-01-31T11:00:48;99525.38;;;6.70;95.16
24154;BME280;12312;53.362;-1.518;2023-01-31T11:03:15;99531.56;;;6.69;95.52
24154;BME280;12312;53.362;-1.518;2023-01-31T11:05:49;99534.63;;;6.61;93.87
24154;BME280;12312;53.362;-1.518;2023-01-31T11:08:35;99545.91;;;6.65;91.95
24154;BME280;12312;53.362;-1.518;2023-01-31T11:11:10;99538.66;;;6.68;92.53
24154;BME280;12312;53.362;-1.518;2023-01-31T11:13:37;99549.59;;;6.78;91.57
24154;BME280;12312;53.362;-1.518;2023-01-31T11:16:07;99536.69;;;6.89;90.90
24154;BME280;12312;53.362;-1.518;2023-01-31T11:18:45;99551.84;;;6.85;90.76
24154;BME280;12312;53.362;-1.518;2023-01-31T11:21:19;99524.81;;;6.80;89.38
24154;BME280;12312;53.362;-1.518;2023-01-31T11:23:47;99527.13;;;6.86;87.18
24154;BME280;12312;53.362;-1.518;2023-01-31T11:26:24;99541.66;;;6.95;88.59
24154;BME280;12312;53.362;-1.518;2023-01-31T11:28:51;99516.47;;;6.88;87.08
24154;BME280;12312;53.362;-1.518;2023-01-31T11:31:28;99534.81;;;6.91;86.64
24154;BME280;12312;53.362;-1.518;2023-01-31T11:34:00;99517.38;;;6.87;83.84
24154;BME280;12312;53.362;-1.518;2023-01-31T11:36:40;99516.22;;;6.92;84.03
24154;BME280;12312;53.362;-1.518;2023-01-31T11:39:26;99533.25;;;6.87;85.64
24154;BME280;12312;53.362;-1.518;2023-01-31T11:41:51;99527.47;;;6.96;85.56
24154;BME280;12312;53.362;-1.518;2023-01-31T11:44:19;99532.28;;;7.05;84.50
24154;BME280;12312;53.362;-1.518;2023-01-31T11:49:20;99540.00;;;7.25;85.79
24154;BME280;12312;53.362;-1.518;2023-01-31T11:51:47;99550.16;;;7.17;84.36
24154;BME280;12312;53.362;-1.518;2023-01-31T11:54:17;99531.91;;;7.28;84.68
24154;BME280;12312;53.362;-1.518;2023-01-31T11:56:44;99541.56;;;7.29;84.24
24154;BME280;12312;53.362;-1.518;2023-01-31T11:59:15;99533.88;;;7.40;83.41
24154;BME280;12312;53.362;-1.518;2023-01-31T12:01:48;99515.53;;;7.37;83.64
24154;BME280;12312;53.362;-1.518;2023-01-31T12:04:20;99520.41;;;7.45;82.81
24154;BME280;12312;53.362;-1.518;2023-01-31T12:07:19;99482.16;;;7.50;81.38
24154;BME280;12312;53.362;-1.518;2023-01-31T12:09:45;99513.59;;;7.72;79.53
24154;BME280;12312;53.362;-1.518;2023-01-31T12:12:33;99512.63;;;7.88;79.54
24154;BME280;12312;53.362;-1.518;2023-01-31T12:15:04;99508.69;;;7.95;79.06
24154;BME280;12312;53.362;-1.518;2023-01-31T12:17:43;99500.91;;;8.23;78.08
24154;BME280;12312;53.362;-1.518;2023-01-31T12:23:10;99504.63;;;8.04;76.33
24154;BME280;12312;53.362;-1.518;2023-01-31T12:42:10;99514.22;;;8.06;80.28
24154;BME280;12312;53.362;-1.518;2023-01-31T12:44:53;99528.94;;;7.34;84.40
24154;BME280;12312;53.362;-1.518;2023-01-31T12:47:34;99513.84;;;6.54;87.82
24154;BME280;12312;53.362;-1.518;2023-01-31T12:50:29;99541.09;;;5.86;93.16
24154;BME280;12312;53.362;-1.518;2023-01-31T13:00:57;99503.56;;;6.82;82.40
24154;BME280;12312;53.362;-1.518;2023-01-31T13:06:18;99523.56;;;7.20;78.07
24154;BME280;12312;53.362;-1.518;2023-01-31T13:09:10;99495.84;;;7.10;77.43
24154;BME280;12312;53.362;-1.518;2023-01-31T13:11:54;99529.38;;;7.09;76.24
24154;BME280;12312;53.362;-1.518;2023-01-31T13:14:22;99544.59;;;7.06;75.21
24154;BME280;12312;53.362;-1.518;2023-01-31T13:16:55;99521.78;;;6.71;76.11
24154;BME280;12312;53.362;-1.518;2023-01-31T13:19:42;99509.41;;;7.04;76.60
24154;BME280;12312;53.362;-1.518;2023-01-31T13:22:46;99499.66;;;6.89;78.90
24154;BME280;12312;53.362;-1.518;2023-01-31T13:25:20;99504.53;;;6.47;81.31
24154;BME280;12312;53.362;-1.518;2023-01-31T13:27:57;99521.31;;;6.46;81.91
24154;BME280;12312;53.362;-1.518;2023-01-31T13:34:03;99507.69;;;6.53;81.23
24154;BME280;12312;53.362;-1.518;2023-01-31T13:39:08;99548.69;;;6.45;83.70
24154;BME280;12312;53.362;-1.518;2023-01-31T13:41:38;99540.28;;;6.54;84.24
24154;BME280;12312;53.362;-1.518;2023-01-31T13:44:04;99545.81;;;6.49;83.18
24154;BME280;12312;53.362;-1.518;2023-01-31T13:51:44;99522.09;;;6.31;84.49
24154;BME280;12312;53.362;-1.518;2023-01-31T13:54:16;99521.19;;;6.32;83.63
24154;BME280;12312;53.362;-1.518;2023-01-31T13:56:49;99525.28;;;6.37;85.72
24154;BME280;12312;53.362;-1.518;2023-01-31T13:59:20;99531.28;;;6.41;83.64
24154;BME280;12312;53.362;-1.518;2023-01-31T14:01:49;99527.78;;;6.40;82.60
24154;BME280;12312;53.362;-1.518;2023-01-31T14:09:25;99502.66;;;6.66;78.04
24154;BME280;12312;53.362;-1.518;2023-01-31T14:11:54;99525.41;;;6.85;76.27
24154;BME280;12312;53.362;-1.518;2023-01-31T14:17:09;99478.31;;;6.92;77.26
24154;BME280;12312;53.362;-1.518;2023-01-31T14:22:14;99493.47;;;6.73;79.78
24154;BME280;12312;53.362;-1.518;2023-01-31T14:27:25;99508.09;;;6.63;78.37
24154;BME280;12312;53.362;-1.518;2023-01-31T14:48:29;99496.28;;;6.53;78.36
24154;BME280;12312;53.362;-1.518;2023-01-31T14:51:57;99510.75;;;6.46;78.99
24154;BME280;12312;53.362;-1.518;2023-01-31T14:59:32;99502.22;;;6.41;78.55
24154;BME280;12312;53.362;-1.518;2023-01-31T15:02:03;99510.06;;;6.42;78.18
24154;BME280;12312;53.362;-1.518;2023-01-31T15:04:44;99507.66;;;6.38;78.56
24154;BME280;12312;53.362;-1.518;2023-01-31T15:07:18;99503.44;;;6.34;77.25
24154;BME280;12312;53.362;-1.518;2023-01-31T15:09:43;99504.38;;;6.33;78.12
24154;BME280;12312;53.362;-1.518;2023-01-31T15:15:25;99467.84;;;6.24;78.68
24154;BME280;12312;53.362;-1.518;2023-01-31T15:17:53;99474.16;;;6.21;80.29
24154;BME280;12312;53.362;-1.518;2023-01-31T15:20:41;99449.84;;;6.15;79.60
24154;BME280;12312;53.362;-1.518;2023-01-31T15:23:15;99382.22;;;6.11;79.12
24154;BME280;12312;53.362;-1.518;2023-01-31T15:25:44;99402.50;;;6.10;79.99
24154;BME280;12312;53.362;-1.518;2023-01-31T15:28:19;99454.63;;;6.07;81.19
24154;BME280;12312;53.362;-1.518;2023-01-31T15:30:47;99458.22;;;6.06;81.35
24154;BME280;12312;53.362;-1.518;2023-01-31T15:33:26;99455.81;;;6.01;82.42
24154;BME280;12312;53.362;-1.518;2023-01-31T15:35:59;99441.81;;;5.99;81.62
24154;BME280;12312;53.362;-1.518;2023-01-31T15:43:44;99459.00;;;5.91;81.95